Terminal Aerodrome Forecast
Issued by NWS Wilmington, OH

Current Version | Previous Version | Graphics & Text | Print | Product List | Glossary On
Versions: 1 2 3 4 5 6 7 8 9 10 11 12 13 14 15 16 17
000
FTUS41 KILN 211700
TAFDAY
TAF
KDAY 211720Z 2118/2218 23011KT P6SM BKN150
     FM220000 23010KT P6SM VCSH SCT050 OVC100
     FM220600 24012KT P6SM -SHRA BKN050 OVC100
     FM221100 30013KT P6SM OVC020
     FM221400 32018G26KT P6SM SCT035=

USA.gov is the U.S. government's official web portal to all federal, state and local government web resources and services.